Time,TemperatureF,DewpointF,PressureIn,WindDirection,WindDirectionDegrees,WindSpeedMPH,WindSpeedGustMPH,Humidity,HourlyPrecipIn,Conditions,Clouds,dailyrainin,SoftwareType,DateUTC
2013-02-25 00:00:00,26.4,5.4,30.35,NW,315,8.0,11.0,40,0.00,,---,0.00,VWS V14.01,2013-02-25 07:00:00,
2013-02-25 00:05:00,26.4,5.4,30.35,NW,315,8.0,12.0,40,0.00,,---,0.00,VWS V14.01,2013-02-25 07:05:00,
2013-02-25 00:10:00,26.4,5.4,30.35,NW,315,9.0,14.0,40,0.00,,---,0.00,VWS V14.01,2013-02-25 07:10:00,
2013-02-25 00:15:00,26.4,5.4,30.35,NW,315,8.0,12.0,40,0.00,,---,0.00,VWS V14.01,2013-02-25 07:15:00,
2013-02-25 00:20:00,26.3,5.3,30.35,NNW,338,8.0,14.0,40,0.00,,---,0.00,VWS V14.01,2013-02-25 07:20:00,
2013-02-25 00:25:00,26.3,5.3,30.35,NNW,338,8.0,13.0,40,0.00,,---,0.00,VWS V14.01,2013-02-25 07:25:00,
2013-02-25 00:30:00,26.4,5.4,30.35,NNW,338,8.0,13.0,40,0.00,,---,0.00,VWS V14.01,2013-02-25 07:30:00,
2013-02-25 00:35:00,26.4,5.4,30.35,NNW,338,7.0,11.0,40,0.00,,---,0.00,VWS V14.01,2013-02-25 07:35:00,
2013-02-25 00:40:00,26.2,5.7,30.35,NNW,338,7.0,10.0,41,0.00,,---,0.00,VWS V14.01,2013-02-25 07:40:00,
2013-02-25 00:45:00,26.0,5.5,30.35,NNW,338,6.0,9.0,41,0.00,,---,0.00,VWS V14.01,2013-02-25 07:45:00,
2013-02-25 00:50:00,25.8,5.9,30.35,NNW,338,7.0,12.0,42,0.00,,---,0.00,VWS V14.01,2013-02-25 07:50:00,
2013-02-25 00:55:00,25.8,5.9,30.35,NNW,338,6.0,10.0,42,0.00,,---,0.00,VWS V14.01,2013-02-25 07:55:00,
2013-02-25 01:00:00,25.8,5.9,30.36,NNW,338,6.0,9.0,42,0.00,,---,0.00,VWS V14.01,2013-02-25 08:00:00,
2013-02-25 01:05:00,25.8,5.9,30.36,NNW,338,7.0,11.0,42,0.00,,---,0.00,VWS V14.01,2013-02-25 08:05:00,
2013-02-25 01:10:00,25.8,5.9,30.36,NW,315,7.0,12.0,42,0.00,,---,0.00,VWS V14.01,2013-02-25 08:10:00,
2013-02-25 01:15:00,25.7,5.8,30.36,NNW,338,7.0,11.0,42,0.00,,---,0.00,VWS V14.01,2013-02-25 08:15:00,
2013-02-25 01:20:00,25.7,5.8,30.36,NW,315,7.0,11.0,42,0.00,,---,0.00,VWS V14.01,2013-02-25 08:20:00,
2013-02-25 01:25:00,25.7,5.8,30.36,NW,315,7.0,10.0,42,0.00,,---,0.00,VWS V14.01,2013-02-25 08:25:00,
2013-02-25 01:30:00,25.5,6.1,30.37,NW,315,6.0,10.0,43,0.00,,---,0.00,VWS V14.01,2013-02-25 08:30:00,
2013-02-25 01:35:00,25.3,5.9,30.37,NW,315,5.0,8.0,43,0.00,,---,0.00,VWS V14.01,2013-02-25 08:35:00,
2013-02-25 01:40:00,25.1,5.8,30.37,NW,315,4.0,6.0,43,0.00,,---,0.00,VWS V14.01,2013-02-25 08:40:00,
2013-02-25 01:45:00,24.9,6.1,30.37,NW,315,3.0,5.0,44,0.00,,---,0.00,VWS V14.01,2013-02-25 08:45:00,
2013-02-25 01:50:00,24.8,6.0,30.37,NNW,338,4.0,8.0,44,0.00,,---,0.00,VWS V14.01,2013-02-25 08:50:00,
2013-02-25 01:55:00,24.7,5.9,30.37,NNW,338,5.0,7.0,44,0.00,,---,0.00,VWS V14.01,2013-02-25 08:55:00,
2013-02-25 02:00:00,24.7,5.9,30.38,NNW,338,5.0,7.0,44,0.00,,---,0.00,VWS V14.01,2013-02-25 09:00:00,
2013-02-25 02:05:00,24.5,6.2,30.38,NNW,338,5.0,7.0,45,0.00,,---,0.00,VWS V14.01,2013-02-25 09:05:00,
2013-02-25 02:10:00,24.3,6.0,30.38,NNW,338,4.0,7.0,45,0.00,,---,0.00,VWS V14.01,2013-02-25 09:10:00,
2013-02-25 02:15:00,24.2,5.9,30.38,NW,315,4.0,7.0,45,0.00,,---,0.00,VWS V14.01,2013-02-25 09:15:00,
2013-02-25 02:20:00,24.2,5.9,30.38,NW,315,6.0,10.0,45,0.00,,---,0.00,VWS V14.01,2013-02-25 09:20:00,
2013-02-25 02:25:00,24.2,5.9,30.38,NNW,338,3.0,7.0,45,0.00,,---,0.00,VWS V14.01,2013-02-25 09:25:00,
2013-02-25 02:30:00,24.2,5.9,30.39,NW,315,3.0,7.0,45,0.00,,---,0.00,VWS V14.01,2013-02-25 09:30:00,
2013-02-25 02:35:00,24.2,5.9,30.39,NW,315,3.0,7.0,45,0.00,,---,0.00,VWS V14.01,2013-02-25 09:35:00,
2013-02-25 02:40:00,24.2,5.9,30.39,NW,315,3.0,6.0,45,0.00,,---,0.00,VWS V14.01,2013-02-25 09:40:00,
2013-02-25 02:45:00,24.2,5.9,30.39,NW,315,4.0,6.0,45,0.00,,---,0.00,VWS V14.01,2013-02-25 09:45:00,
2013-02-25 02:50:00,24.1,5.8,30.39,NW,315,5.0,9.0,45,0.00,,---,0.00,VWS V14.01,2013-02-25 09:50:00,
2013-02-25 02:55:00,24.2,5.9,30.39,NW,315,5.0,10.0,45,0.00,,---,0.00,VWS V14.01,2013-02-25 09:55:00,
2013-02-25 03:00:00,24.2,5.9,30.40,WNW,292,6.0,8.0,45,0.00,,---,0.00,VWS V14.01,2013-02-25 10:00:00,
2013-02-25 03:05:00,24.3,6.0,30.40,WNW,292,6.0,9.0,45,0.00,,---,0.00,VWS V14.01,2013-02-25 10:05:00,
2013-02-25 03:10:00,24.5,6.2,30.40,NW,315,4.0,9.0,45,0.00,,---,0.00,VWS V14.01,2013-02-25 10:10:00,
2013-02-25 03:15:00,24.7,5.9,30.40,NW,315,6.0,11.0,44,0.00,,---,0.00,VWS V14.01,2013-02-25 10:15:00,
2013-02-25 03:20:00,24.8,6.0,30.40,NW,315,5.0,8.0,44,0.00,,---,0.00,VWS V14.01,2013-02-25 10:20:00,
2013-02-25 03:25:00,24.8,6.0,30.40,NW,315,4.0,10.0,44,0.00,,---,0.00,VWS V14.01,2013-02-25 10:25:00,
2013-02-25 03:30:00,24.8,6.0,30.40,NW,315,4.0,9.0,44,0.00,,---,0.00,VWS V14.01,2013-02-25 10:30:00,
2013-02-25 03:35:00,24.7,5.9,30.40,WNW,292,3.0,7.0,44,0.00,,---,0.00,VWS V14.01,2013-02-25 10:35:00,
2013-02-25 03:40:00,24.5,5.7,30.40,WNW,292,5.0,10.0,44,0.00,,---,0.00,VWS V14.01,2013-02-25 10:40:00,
2013-02-25 03:45:00,24.4,5.6,30.41,NW,315,3.0,6.0,44,0.00,,---,0.00,VWS V14.01,2013-02-25 10:45:00,
2013-02-25 03:50:00,24.4,5.6,30.41,NW,315,4.0,7.0,44,0.00,,---,0.00,VWS V14.01,2013-02-25 10:50:00,
2013-02-25 03:55:00,24.2,5.4,30.41,NNW,338,4.0,6.0,44,0.00,,---,0.00,VWS V14.01,2013-02-25 10:55:00,
2013-02-25 04:00:00,24.2,5.4,30.40,NW,315,5.0,9.0,44,0.00,,---,0.00,VWS V14.01,2013-02-25 11:00:00,
2013-02-25 04:05:00,24.2,5.4,30.40,NW,315,4.0,8.0,44,0.00,,---,0.00,VWS V14.01,2013-02-25 11:05:00,
2013-02-25 04:10:00,24.1,5.3,30.40,NW,315,4.0,8.0,44,0.00,,---,0.00,VWS V14.01,2013-02-25 11:10:00,
2013-02-25 04:15:00,24.1,5.3,30.40,NW,315,5.0,7.0,44,0.00,,---,0.00,VWS V14.01,2013-02-25 11:15:00,
2013-02-25 04:20:00,24.0,5.3,30.40,NW,315,5.0,6.0,44,0.00,,---,0.00,VWS V14.01,2013-02-25 11:20:00,
2013-02-25 04:25:00,23.9,5.2,30.40,NW,315,3.0,5.0,44,0.00,,---,0.00,VWS V14.01,2013-02-25 11:25:00,
2013-02-25 04:30:00,23.8,5.1,30.40,NW,315,4.0,5.0,44,0.00,,---,0.00,VWS V14.01,2013-02-25 11:30:00,
2013-02-25 04:35:00,23.5,5.3,30.40,NW,315,4.0,5.0,45,0.00,,---,0.00,VWS V14.01,2013-02-25 11:35:00,
2013-02-25 04:40:00,23.3,5.1,30.40,NW,315,4.0,8.0,45,0.00,,---,0.00,VWS V14.01,2013-02-25 11:40:00,
2013-02-25 04:45:00,23.1,4.9,30.40,NNW,338,4.0,7.0,45,0.00,,---,0.00,VWS V14.01,2013-02-25 11:45:00,
2013-02-25 04:50:00,23.0,6.2,30.40,NNW,338,4.0,7.0,48,0.00,,---,0.00,VWS V14.01,2013-02-25 11:50:00,
2013-02-25 04:55:00,23.0,4.8,30.40,NNW,338,2.0,4.0,45,0.00,,---,0.00,VWS V14.01,2013-02-25 11:55:00,
2013-02-25 05:07:00,23.0,4.8,30.41,NW,320,5.0,5.0,45,0.00,,---,0.00,VWS V14.01,2013-02-25 12:07:00,
2013-02-25 05:10:00,23.2,5.0,30.41,NW,320,4.0,7.0,45,0.00,,---,0.00,VWS V14.01,2013-02-25 12:10:00,
2013-02-25 05:12:00,23.2,5.0,30.41,NW,319,4.0,6.0,45,0.00,,---,0.00,VWS V14.01,2013-02-25 12:12:00,
2013-02-25 05:15:00,23.2,5.0,30.41,NW,319,4.0,6.0,45,0.00,,---,0.00,VWS V14.01,2013-02-25 12:15:00,
2013-02-25 05:17:00,23.0,4.8,30.41,NW,319,3.0,8.0,45,0.00,,---,0.00,VWS V14.01,2013-02-25 12:17:00,
2013-02-25 05:20:00,23.0,4.8,30.41,NW,321,5.0,8.0,45,0.00,,---,0.00,VWS V14.01,2013-02-25 12:20:00,
2013-02-25 05:22:00,22.9,4.8,30.41,NW,326,3.0,6.0,45,0.00,,---,0.00,VWS V14.01,2013-02-25 12:22:00,
2013-02-25 05:25:00,22.9,5.2,30.41,NNW,327,4.0,6.0,46,0.00,,---,0.00,VWS V14.01,2013-02-25 12:25:00,
2013-02-25 05:27:00,22.7,5.0,30.41,NNW,330,4.0,7.0,46,0.00,,---,0.00,VWS V14.01,2013-02-25 12:27:00,
2013-02-25 05:30:00,22.7,5.0,30.41,NNW,330,4.0,7.0,46,0.00,,---,0.00,VWS V14.01,2013-02-25 12:30:00,
2013-02-25 05:32:00,22.7,5.0,30.41,NNW,330,5.0,6.0,46,0.00,,---,0.00,VWS V14.01,2013-02-25 12:32:00,
2013-02-25 05:35:00,22.7,5.0,30.41,NNW,330,5.0,6.0,46,0.00,,---,0.00,VWS V14.01,2013-02-25 12:35:00,
2013-02-25 05:38:00,22.5,4.9,30.41,NNW,330,4.0,5.0,46,0.00,,---,0.00,VWS V14.01,2013-02-25 12:38:00,
2013-02-25 05:40:00,22.5,4.9,30.41,NNW,330,4.0,5.0,46,0.00,,---,0.00,VWS V14.01,2013-02-25 12:40:00,
2013-02-25 05:43:00,22.5,4.9,30.41,NNW,331,4.0,6.0,46,0.00,,---,0.00,VWS V14.01,2013-02-25 12:43:00,
2013-02-25 05:45:00,22.5,4.9,30.42,NNW,329,5.0,7.0,46,0.00,,---,0.00,VWS V14.01,2013-02-25 12:45:00,
2013-02-25 05:48:00,22.7,5.0,30.42,NW,319,4.0,7.0,46,0.00,,---,0.00,VWS V14.01,2013-02-25 12:48:00,
2013-02-25 05:50:00,22.7,5.0,30.42,NW,317,4.0,7.0,46,0.00,,---,0.00,VWS V14.01,2013-02-25 12:50:00,
2013-02-25 05:54:00,22.5,4.9,30.42,NW,321,5.0,7.0,46,0.00,,---,0.00,VWS V14.01,2013-02-25 12:54:00,
2013-02-25 05:55:00,22.5,4.9,30.42,NW,326,3.0,7.0,46,0.00,,---,0.00,VWS V14.01,2013-02-25 12:55:00,
2013-02-25 05:59:00,22.5,4.9,30.43,NW,326,5.0,5.0,46,0.00,,---,0.00,VWS V14.01,2013-02-25 12:59:00,
2013-02-25 06:00:00,22.5,4.9,30.43,NNW,327,4.0,6.0,46,0.00,,---,0.00,VWS V14.01,2013-02-25 13:00:00,
2013-02-25 06:04:00,22.5,4.9,30.43,NW,325,5.0,7.0,46,0.00,,---,0.00,VWS V14.01,2013-02-25 13:04:00,
2013-02-25 06:05:00,22.5,4.9,30.43,NW,325,5.0,7.0,46,0.00,,---,0.00,VWS V14.01,2013-02-25 13:05:00,
2013-02-25 06:09:00,22.4,4.8,30.43,NW,325,3.0,6.0,46,0.00,,---,0.00,VWS V14.01,2013-02-25 13:09:00,
2013-02-25 06:10:00,22.4,4.8,30.43,NW,325,4.0,6.0,46,0.00,,---,0.00,VWS V14.01,2013-02-25 13:10:00,
2013-02-25 06:15:00,22.4,5.2,30.43,NW,325,3.0,6.0,47,0.00,,---,0.00,VWS V14.01,2013-02-25 13:15:00,
2013-02-25 06:20:00,22.4,4.8,30.43,NW,325,3.0,5.0,46,0.00,,---,0.00,VWS V14.01,2013-02-25 13:20:00,
2013-02-25 06:25:00,22.2,4.6,30.43,NW,325,2.0,4.0,46,0.00,,---,0.00,VWS V14.01,2013-02-25 13:25:00,
2013-02-25 06:30:00,22.2,4.6,30.42,NW,325,2.0,5.0,46,0.00,,---,0.00,VWS V14.01,2013-02-25 13:30:00,
2013-02-25 06:35:00,22.1,4.5,30.42,NW,325,1.0,3.0,46,0.00,,---,0.00,VWS V14.01,2013-02-25 13:35:00,
2013-02-25 06:40:00,22.1,4.5,30.42,NW,325,0.0,1.0,46,0.00,,---,0.00,VWS V14.01,2013-02-25 13:40:00,
2013-02-25 06:45:00,21.9,4.3,30.42,NW,325,0.0,0.0,46,0.00,,---,0.00,VWS V14.01,2013-02-25 13:45:00,
2013-02-25 06:50:00,21.8,4.2,30.42,NW,325,0.0,0.0,46,0.00,,---,0.00,VWS V14.01,2013-02-25 13:50:00,
2013-02-25 06:55:00,21.6,4.0,30.42,NW,325,0.0,0.0,46,0.00,,---,0.00,VWS V14.01,2013-02-25 13:55:00,
2013-02-25 07:00:00,21.6,4.0,30.43,WNW,296,3.0,3.0,46,0.00,,---,0.00,VWS V14.01,2013-02-25 14:00:00,
2013-02-25 07:01:00,21.6,4.0,30.43,WNW,294,2.0,3.0,46,0.00,,---,0.00,VWS V14.01,2013-02-25 14:01:00,
2013-02-25 07:05:00,21.4,3.8,30.43,WNW,294,0.0,3.0,46,0.00,,---,0.00,VWS V14.01,2013-02-25 14:05:00,
2013-02-25 07:06:00,21.4,4.3,30.43,WNW,294,2.0,2.0,47,0.00,,---,0.00,VWS V14.01,2013-02-25 14:06:00,
2013-02-25 07:10:00,21.4,4.3,30.43,WNW,294,3.0,4.0,47,0.00,,---,0.00,VWS V14.01,2013-02-25 14:10:00,
2013-02-25 07:14:00,21.3,4.2,30.43,WNW,294,0.0,4.0,47,0.00,,---,0.00,VWS V14.01,2013-02-25 14:14:00,
2013-02-25 07:15:00,21.3,4.2,30.43,WNW,294,0.0,4.0,47,0.00,,---,0.00,VWS V14.01,2013-02-25 14:15:00,
2013-02-25 07:19:00,21.3,4.2,30.43,WNW,294,4.0,6.0,47,0.00,,---,0.00,VWS V14.01,2013-02-25 14:19:00,
2013-02-25 07:20:00,21.4,4.3,30.43,WNW,294,2.0,6.0,47,0.00,,---,0.00,VWS V14.01,2013-02-25 14:20:00,
2013-02-25 07:24:00,21.6,4.5,30.43,WNW,294,2.0,4.0,47,0.00,,---,0.00,VWS V14.01,2013-02-25 14:24:00,
2013-02-25 07:25:00,21.6,4.5,30.43,WNW,294,0.0,4.0,47,0.00,,---,0.00,VWS V14.01,2013-02-25 14:25:00,
2013-02-25 07:29:00,21.9,4.8,30.43,WNW,294,0.0,0.0,47,0.00,,---,0.00,VWS V14.01,2013-02-25 14:29:00,
2013-02-25 07:30:00,21.9,4.8,30.43,WNW,294,0.0,0.0,47,0.00,,---,0.00,VWS V14.01,2013-02-25 14:30:00,
2013-02-25 07:34:00,22.2,5.5,30.43,WNW,294,0.0,0.0,48,0.00,,---,0.00,VWS V14.01,2013-02-25 14:34:00,
2013-02-25 07:35:00,22.2,5.5,30.43,WNW,294,0.0,0.0,48,0.00,,---,0.00,VWS V14.01,2013-02-25 14:35:00,
2013-02-25 07:39:00,22.5,6.2,30.43,WNW,294,0.0,0.0,49,0.00,,---,0.00,VWS V14.01,2013-02-25 14:39:00,
2013-02-25 07:40:00,22.7,6.4,30.43,WNW,294,0.0,0.0,49,0.00,,---,0.00,VWS V14.01,2013-02-25 14:40:00,
2013-02-25 07:44:00,23.2,6.9,30.44,WNW,294,0.0,0.0,49,0.00,,---,0.00,VWS V14.01,2013-02-25 14:44:00,
2013-02-25 07:45:00,23.2,6.9,30.44,WNW,294,0.0,0.0,49,0.00,,---,0.00,VWS V14.01,2013-02-25 14:45:00,
2013-02-25 07:49:00,23.8,7.0,30.44,WNW,294,0.0,0.0,48,0.00,,---,0.00,VWS V14.01,2013-02-25 14:49:00,
2013-02-25 07:50:00,23.8,7.0,30.44,WNW,294,0.0,0.0,48,0.00,,---,0.00,VWS V14.01,2013-02-25 14:50:00,
2013-02-25 07:54:00,24.5,7.6,30.44,WNW,294,0.0,0.0,48,0.00,,---,0.00,VWS V14.01,2013-02-25 14:54:00,
2013-02-25 07:55:00,24.5,7.6,30.44,WNW,294,0.0,0.0,48,0.00,,---,0.00,VWS V14.01,2013-02-25 14:55:00,
2013-02-25 07:59:00,25.4,8.5,30.44,WNW,294,0.0,1.0,48,0.00,,---,0.00,VWS V14.01,2013-02-25 14:59:00,
2013-02-25 08:00:00,25.4,8.0,30.44,WNW,294,0.0,1.0,47,0.00,,---,0.00,VWS V14.01,2013-02-25 15:00:00,
2013-02-25 08:04:00,26.1,8.6,30.44,WNW,294,2.0,3.0,47,0.00,,---,0.00,VWS V14.01,2013-02-25 15:04:00,
2013-02-25 08:05:00,26.1,8.6,30.44,WNW,295,4.0,4.0,47,0.00,,---,0.00,VWS V14.01,2013-02-25 15:05:00,
2013-02-25 08:10:00,26.7,7.7,30.44,WNW,295,0.0,4.0,44,0.00,,---,0.00,VWS V14.01,2013-02-25 15:10:00,
2013-02-25 08:15:00,27.5,7.4,30.45,WNW,300,4.0,7.0,42,0.00,,---,0.00,VWS V14.01,2013-02-25 15:15:00,
2013-02-25 08:20:00,28.2,7.5,30.45,WNW,291,5.0,6.0,41,0.00,,---,0.00,VWS V14.01,2013-02-25 15:20:00,
2013-02-25 08:25:00,28.8,7.5,30.45,WNW,291,1.0,5.0,40,0.00,,---,0.00,VWS V14.01,2013-02-25 15:25:00,
2013-02-25 08:30:00,29.4,7.5,30.48,WNW,291,0.0,3.0,39,0.00,,---,0.00,VWS V14.01,2013-02-25 15:30:00,
2013-02-25 08:35:00,29.7,8.4,30.48,WNW,290,0.0,3.0,40,0.00,,---,0.00,VWS V14.01,2013-02-25 15:35:00,
2013-02-25 08:40:00,30.3,8.9,30.48,SE,142,1.0,4.0,40,0.00,,---,0.00,VWS V14.01,2013-02-25 15:40:00,
2013-02-25 08:45:00,30.7,8.7,30.49,SE,142,0.0,0.0,39,0.00,,---,0.00,VWS V14.01,2013-02-25 15:45:00,
2013-02-25 08:50:00,31.2,8.0,30.49,SE,141,1.0,3.0,37,0.00,,---,0.00,VWS V14.01,2013-02-25 15:50:00,
2013-02-25 08:55:00,31.3,8.1,30.49,SE,141,0.0,1.0,37,0.00,,---,0.00,VWS V14.01,2013-02-25 15:55:00,
2013-02-25 09:00:00,31.9,7.4,30.48,SE,140,3.0,3.0,35,0.00,,---,0.00,VWS V14.01,2013-02-25 16:00:00,
2013-02-25 09:05:00,32.4,7.8,30.48,SE,135,2.0,2.0,35,0.00,,---,0.00,VWS V14.01,2013-02-25 16:05:00,
2013-02-25 09:10:00,32.5,7.3,30.48,SE,135,1.0,1.0,34,0.00,,---,0.00,VWS V14.01,2013-02-25 16:10:00,
2013-02-25 09:15:00,33.2,8.5,30.47,NE,44,3.0,5.0,35,0.00,,---,0.00,VWS V14.01,2013-02-25 16:15:00,
2013-02-25 09:16:00,33.4,8.7,30.47,NE,42,1.0,3.0,35,0.00,,---,0.00,VWS V14.01,2013-02-25 16:16:00,
2013-02-25 09:20:00,34.1,8.7,30.47,WNW,289,2.0,3.0,34,0.00,,---,0.00,VWS V14.01,2013-02-25 16:20:00,
2013-02-25 09:21:00,34.3,8.2,30.47,WNW,289,1.0,2.0,33,0.00,,---,0.00,VWS V14.01,2013-02-25 16:21:00,
2013-02-25 09:25:00,34.3,7.5,30.47,WNW,289,0.0,4.0,32,0.00,,---,0.00,VWS V14.01,2013-02-25 16:25:00,
2013-02-25 09:26:00,34.3,8.2,30.47,WNW,289,0.0,0.0,33,0.00,,---,0.00,VWS V14.01,2013-02-25 16:26:00,
2013-02-25 09:30:00,34.7,7.2,30.46,WNW,289,0.0,4.0,31,0.00,,---,0.00,VWS V14.01,2013-02-25 16:30:00,
2013-02-25 09:31:00,34.7,6.4,30.46,WNW,290,2.0,4.0,30,0.00,,---,0.00,VWS V14.01,2013-02-25 16:31:00,
2013-02-25 09:35:00,35.3,7.0,30.46,NW,326,4.0,6.0,30,0.00,,---,0.00,VWS V14.01,2013-02-25 16:35:00,
2013-02-25 09:36:00,35.5,7.2,30.46,NW,326,1.0,4.0,30,0.00,,---,0.00,VWS V14.01,2013-02-25 16:36:00,
2013-02-25 09:40:00,35.8,5.9,30.46,NW,325,2.0,6.0,28,0.00,,---,0.00,VWS V14.01,2013-02-25 16:40:00,
2013-02-25 09:41:00,35.9,6.0,30.46,NW,325,4.0,5.0,28,0.00,,---,0.00,VWS V14.01,2013-02-25 16:41:00,
2013-02-25 09:45:00,36.9,6.8,30.47,NNE,28,0.0,6.0,28,0.00,,---,0.00,VWS V14.01,2013-02-25 16:45:00,
2013-02-25 09:46:00,37.0,7.7,30.47,NNE,21,3.0,4.0,29,0.00,,---,0.00,VWS V14.01,2013-02-25 16:46:00,
2013-02-25 09:50:00,37.3,7.2,30.47,NNE,21,1.0,4.0,28,0.00,,---,0.00,VWS V14.01,2013-02-25 16:50:00,
2013-02-25 09:51:00,37.5,7.4,30.47,NNE,22,2.0,4.0,28,0.00,,---,0.00,VWS V14.01,2013-02-25 16:51:00,
2013-02-25 09:55:00,38.0,8.6,30.47,NNE,20,3.0,5.0,29,0.00,,---,0.00,VWS V14.01,2013-02-25 16:55:00,
2013-02-25 09:56:00,38.2,8.0,30.47,NNE,20,3.0,3.0,28,0.00,,---,0.00,VWS V14.01,2013-02-25 16:56:00,
2013-02-25 10:00:00,38.5,8.2,30.48,NNE,15,4.0,7.0,28,0.00,,---,0.00,VWS V14.01,2013-02-25 17:00:00,
2013-02-25 10:01:00,38.6,7.5,30.48,NNE,15,4.0,5.0,27,0.00,,---,0.00,VWS V14.01,2013-02-25 17:01:00,
2013-02-25 10:05:00,38.8,7.7,30.48,NW,324,3.0,6.0,27,0.00,,---,0.00,VWS V14.01,2013-02-25 17:05:00,
2013-02-25 10:06:00,38.9,7.8,30.48,NW,324,1.0,6.0,27,0.00,,---,0.00,VWS V14.01,2013-02-25 17:06:00,
2013-02-25 10:10:00,38.9,6.9,30.48,North,350,4.0,7.0,26,0.00,,---,0.00,VWS V14.01,2013-02-25 17:10:00,
2013-02-25 10:12:00,39.1,7.1,30.48,NNW,337,2.0,7.0,26,0.00,,---,0.00,VWS V14.01,2013-02-25 17:12:00,
2013-02-25 10:15:00,39.8,8.6,30.46,NNW,334,3.0,7.0,27,0.00,,---,0.00,VWS V14.01,2013-02-25 17:15:00,
2013-02-25 10:17:00,39.9,7.8,30.46,NNW,334,4.0,4.0,26,0.00,,---,0.00,VWS V14.01,2013-02-25 17:17:00,
2013-02-25 10:20:00,39.6,6.7,30.46,NW,319,4.0,8.0,25,0.00,,---,0.00,VWS V14.01,2013-02-25 17:20:00,
2013-02-25 10:22:00,39.8,7.7,30.46,North,5,5.0,7.0,26,0.00,,---,0.00,VWS V14.01,2013-02-25 17:22:00,
2013-02-25 10:25:00,39.9,7.8,30.46,NE,50,5.0,9.0,26,0.00,,---,0.00,VWS V14.01,2013-02-25 17:25:00,
2013-02-25 10:27:00,40.2,8.9,30.46,NNW,344,5.0,7.0,27,0.00,,---,0.00,VWS V14.01,2013-02-25 17:27:00,
2013-02-25 10:30:00,39.9,6.9,30.45,NW,306,4.0,7.0,25,0.00,,---,0.00,VWS V14.01,2013-02-25 17:30:00,
2013-02-25 10:32:00,39.8,8.6,30.45,NW,315,0.0,5.0,27,0.00,,---,0.00,VWS V14.01,2013-02-25 17:32:00,
2013-02-25 10:35:00,40.2,8.1,30.45,NW,313,2.0,5.0,26,0.00,,---,0.00,VWS V14.01,2013-02-25 17:35:00,
2013-02-25 10:38:00,40.1,8.0,30.45,NNW,344,5.0,5.0,26,0.00,,---,0.00,VWS V14.01,2013-02-25 17:38:00,
2013-02-25 10:40:00,40.2,8.1,30.45,NNW,346,2.0,6.0,26,0.00,,---,0.00,VWS V14.01,2013-02-25 17:40:00,
2013-02-25 10:43:00,40.2,8.1,30.45,NNW,335,5.0,6.0,26,0.00,,---,0.00,VWS V14.01,2013-02-25 17:43:00,
2013-02-25 10:45:00,40.2,8.1,30.44,NNW,338,3.0,6.0,26,0.00,,---,0.00,VWS V14.01,2013-02-25 17:45:00,
2013-02-25 10:49:00,40.9,8.7,30.44,NNW,337,5.0,7.0,26,0.00,,---,0.00,VWS V14.01,2013-02-25 17:49:00,
2013-02-25 10:50:00,40.5,6.6,30.44,NNW,337,0.0,7.0,24,0.00,,---,0.00,VWS V14.01,2013-02-25 17:50:00,
2013-02-25 10:55:00,40.5,7.5,30.44,NNW,338,3.0,5.0,25,0.00,,---,0.00,VWS V14.01,2013-02-25 17:55:00,
2013-02-25 11:00:00,40.7,7.6,30.43,NNW,338,3.0,8.0,25,0.00,,---,0.00,VWS V14.01,2013-02-25 18:00:00,
2013-02-25 11:05:00,41.2,8.1,30.43,NNW,338,3.0,7.0,25,0.00,,---,0.00,VWS V14.01,2013-02-25 18:05:00,
2013-02-25 11:10:00,41.8,7.7,30.43,NNW,338,4.0,9.0,24,0.00,,---,0.00,VWS V14.01,2013-02-25 18:10:00,
2013-02-25 11:15:00,41.7,8.5,30.43,NNE,22,4.0,8.0,25,0.00,,---,0.00,VWS V14.01,2013-02-25 18:15:00,
2013-02-25 11:20:00,42.3,9.0,30.43,North,0,4.0,8.0,25,0.00,,---,0.00,VWS V14.01,2013-02-25 18:20:00,
2013-02-25 11:25:00,42.8,8.5,30.43,North,0,4.0,7.0,24,0.00,,---,0.00,VWS V14.01,2013-02-25 18:25:00,
2013-02-25 11:30:00,42.7,6.5,30.42,NW,315,4.0,8.0,22,0.00,,---,0.00,VWS V14.01,2013-02-25 18:30:00,
2013-02-25 11:35:00,43.0,8.7,30.42,NW,315,3.0,7.0,24,0.00,,---,0.00,VWS V14.01,2013-02-25 18:35:00,
2013-02-25 11:40:00,44.3,7.9,30.42,NW,315,3.0,7.0,22,0.00,,---,0.00,VWS V14.01,2013-02-25 18:40:00,
2013-02-25 11:45:00,44.6,7.1,30.41,NNW,338,3.0,6.0,21,0.00,,---,0.00,VWS V14.01,2013-02-25 18:45:00,
2013-02-25 11:50:00,44.4,7.9,30.41,NNW,338,3.0,6.0,22,0.00,,---,0.00,VWS V14.01,2013-02-25 18:50:00,
2013-02-25 11:55:00,45.0,6.4,30.41,North,0,3.0,5.0,20,0.00,,---,0.00,VWS V14.01,2013-02-25 18:55:00,
2013-02-25 12:00:00,46.0,9.3,30.41,North,0,4.0,9.0,22,0.00,,---,0.00,VWS V14.01,2013-02-25 19:00:00,
2013-02-25 12:05:00,46.6,8.8,30.41,NW,315,4.0,8.0,21,0.00,,---,0.00,VWS V14.01,2013-02-25 19:05:00,
2013-02-25 12:10:00,46.8,7.9,30.41,NNW,338,5.0,8.0,20,0.00,,---,0.00,VWS V14.01,2013-02-25 19:10:00,
2013-02-25 12:15:00,46.8,11.0,30.39,NNW,338,6.0,9.0,23,0.00,,---,0.00,VWS V14.01,2013-02-25 19:15:00,
2013-02-25 12:20:00,47.5,9.5,30.39,NNE,22,6.0,10.0,21,0.00,,---,0.00,VWS V14.01,2013-02-25 19:20:00,
2013-02-25 12:25:00,48.3,10.2,30.39,NNW,338,6.0,10.0,21,0.00,,---,0.00,VWS V14.01,2013-02-25 19:25:00,
2013-02-25 12:30:00,48.0,9.9,30.38,NNW,338,5.0,10.0,21,0.00,,---,0.00,VWS V14.01,2013-02-25 19:30:00,
2013-02-25 12:35:00,48.2,7.9,30.38,NW,315,6.0,11.0,19,0.00,,---,0.00,VWS V14.01,2013-02-25 19:35:00,
2013-02-25 12:40:00,48.0,5.3,30.38,NNW,338,5.0,10.0,17,0.00,,---,0.00,VWS V14.01,2013-02-25 19:40:00,
2013-02-25 12:45:00,48.4,6.9,30.36,NNW,338,5.0,9.0,18,0.00,,---,0.00,VWS V14.01,2013-02-25 19:45:00,
2013-02-25 12:50:00,48.6,3.0,30.36,North,0,4.0,10.0,15,0.00,,---,0.00,VWS V14.01,2013-02-25 19:50:00,
2013-02-25 12:55:00,48.6,-1.7,30.36,North,0,4.0,10.0,12,0.00,,---,0.00,VWS V14.01,2013-02-25 19:55:00,
2013-02-25 13:00:00,48.0,-6.0,30.36,NNE,22,3.0,7.0,10,0.00,,---,0.00,VWS V14.01,2013-02-25 20:00:00,
2013-02-25 13:05:00,48.1,-0.4,30.36,ENE,68,4.0,8.0,13,0.00,,---,0.00,VWS V14.01,2013-02-25 20:05:00,
2013-02-25 13:10:00,48.6,-1.7,30.36,NW,315,5.0,9.0,12,0.00,,---,0.00,VWS V14.01,2013-02-25 20:10:00,
2013-02-25 13:15:00,48.9,-1.5,30.34,NNW,338,6.0,11.0,12,0.00,,---,0.00,VWS V14.01,2013-02-25 20:15:00,
2013-02-25 13:20:00,49.5,-1.0,30.34,NNW,338,6.0,11.0,12,0.00,,---,0.00,VWS V14.01,2013-02-25 20:20:00,
2013-02-25 13:25:00,49.6,-2.8,30.34,NNW,338,5.0,12.0,11,0.00,,---,0.00,VWS V14.01,2013-02-25 20:25:00,
2013-02-25 13:30:00,49.9,-0.7,30.34,NNW,338,6.0,9.0,12,0.00,,---,0.00,VWS V14.01,2013-02-25 20:30:00,
2013-02-25 13:35:00,50.1,-2.4,30.34,NNW,338,6.0,10.0,11,0.00,,---,0.00,VWS V14.01,2013-02-25 20:35:00,
2013-02-25 13:40:00,50.0,-2.4,30.34,NW,315,5.0,10.0,11,0.00,,---,0.00,VWS V14.01,2013-02-25 20:40:00,
2013-02-25 13:45:00,49.8,-0.8,30.33,NW,315,4.0,7.0,12,0.00,,---,0.00,VWS V14.01,2013-02-25 20:45:00,
2013-02-25 13:50:00,49.6,-0.9,30.33,NE,45,4.0,7.0,12,0.00,,---,0.00,VWS V14.01,2013-02-25 20:50:00,
2013-02-25 13:55:00,50.5,-2.0,30.33,NW,315,4.0,8.0,11,0.00,,---,0.00,VWS V14.01,2013-02-25 20:55:00,
2013-02-25 14:00:00,51.0,0.2,30.32,NE,45,4.0,6.0,12,0.00,,---,0.00,VWS V14.01,2013-02-25 21:00:00,
2013-02-25 14:05:00,51.4,-3.3,30.32,NNW,338,4.0,10.0,10,0.00,,---,0.00,VWS V14.01,2013-02-25 21:05:00,
2013-02-25 14:10:00,51.2,-1.5,30.32,NNE,22,4.0,9.0,11,0.00,,---,0.00,VWS V14.01,2013-02-25 21:10:00,
2013-02-25 14:15:00,51.4,-1.3,30.31,North,0,2.0,7.0,11,0.00,,---,0.00,VWS V14.01,2013-02-25 21:15:00,
2013-02-25 14:20:00,51.7,2.5,30.31,North,0,5.0,8.0,13,0.00,,---,0.00,VWS V14.01,2013-02-25 21:20:00,
2013-02-25 14:25:00,52.5,1.4,30.31,NNW,338,4.0,10.0,12,0.00,,---,0.00,VWS V14.01,2013-02-25 21:25:00,
2013-02-25 14:30:00,51.4,0.5,30.31,NNW,338,2.0,6.0,12,0.00,,---,0.00,VWS V14.01,2013-02-25 21:30:00,
2013-02-25 14:35:00,51.1,0.3,30.31,NE,45,4.0,9.0,12,0.00,,---,0.00,VWS V14.01,2013-02-25 21:35:00,
2013-02-25 14:40:00,52.3,2.9,30.31,North,0,6.0,9.0,13,0.00,,---,0.00,VWS V14.01,2013-02-25 21:40:00,
2013-02-25 14:45:00,52.6,-0.4,30.30,NNW,338,1.0,6.0,11,0.00,,---,0.00,VWS V14.01,2013-02-25 21:45:00,
2013-02-25 14:50:00,52.2,-2.7,30.30,NNE,22,3.0,7.0,10,0.00,,---,0.00,VWS V14.01,2013-02-25 21:50:00,
2013-02-25 14:55:00,51.9,0.9,30.30,NNE,22,2.0,6.0,12,0.00,,---,0.00,VWS V14.01,2013-02-25 21:55:00,
2013-02-25 15:00:00,52.0,-0.9,30.29,North,0,0.0,3.0,11,0.00,,---,0.00,VWS V14.01,2013-02-25 22:00:00,
2013-02-25 15:05:00,52.8,-4.5,30.29,North,0,2.0,7.0,9,0.00,,---,0.00,VWS V14.01,2013-02-25 22:05:00,
2013-02-25 15:10:00,52.9,-6.8,30.29,West,270,5.0,10.0,8,0.00,,---,0.00,VWS V14.01,2013-02-25 22:10:00,
2013-02-25 15:15:00,53.1,-6.7,30.29,WNW,292,6.0,14.0,8,0.00,,---,0.00,VWS V14.01,2013-02-25 22:15:00,
2013-02-25 15:20:00,53.0,-9.5,30.29,SW,225,4.0,10.0,7,0.00,,---,0.00,VWS V14.01,2013-02-25 22:20:00,
2013-02-25 15:25:00,52.7,-4.5,30.29,West,270,7.0,13.0,9,0.00,,---,0.00,VWS V14.01,2013-02-25 22:25:00,
2013-02-25 15:30:00,53.0,-0.1,30.29,WNW,292,7.0,12.0,11,0.00,,---,0.00,VWS V14.01,2013-02-25 22:30:00,
2013-02-25 15:35:00,52.9,-0.2,30.29,West,270,9.0,15.0,11,0.00,,---,0.00,VWS V14.01,2013-02-25 22:35:00,
2013-02-25 15:40:00,52.4,1.3,30.29,West,270,8.0,12.0,12,0.00,,---,0.00,VWS V14.01,2013-02-25 22:40:00,
2013-02-25 15:45:00,52.7,-0.3,30.28,West,270,5.0,9.0,11,0.00,,---,0.00,VWS V14.01,2013-02-25 22:45:00,
2013-02-25 15:50:00,52.8,3.3,30.28,West,270,8.0,12.0,13,0.00,,---,0.00,VWS V14.01,2013-02-25 22:50:00,
2013-02-25 15:55:00,52.5,1.4,30.28,West,270,9.0,12.0,12,0.00,,---,0.00,VWS V14.01,2013-02-25 22:55:00,
2013-02-25 16:00:00,52.5,3.1,30.28,West,270,8.0,14.0,13,0.00,,---,0.00,VWS V14.01,2013-02-25 23:00:00,
2013-02-25 16:05:00,52.3,2.9,30.28,WSW,248,9.0,16.0,13,0.00,,---,0.00,VWS V14.01,2013-02-25 23:05:00,
2013-02-25 16:10:00,52.0,4.3,30.28,West,270,10.0,16.0,14,0.00,,---,0.00,VWS V14.01,2013-02-25 23:10:00,
2013-02-25 16:15:00,51.7,4.1,30.28,West,270,10.0,17.0,14,0.00,,---,0.00,VWS V14.01,2013-02-25 23:15:00,
2013-02-25 16:20:00,51.2,5.2,30.28,West,270,9.0,15.0,15,0.00,,---,0.00,VWS V14.01,2013-02-25 23:20:00,
2013-02-25 16:25:00,50.9,6.3,30.28,West,270,10.0,15.0,16,0.00,,---,0.00,VWS V14.01,2013-02-25 23:25:00,
2013-02-25 16:30:00,50.6,6.1,30.28,West,270,11.0,18.0,16,0.00,,---,0.00,VWS V14.01,2013-02-25 23:30:00,
2013-02-25 16:35:00,50.2,5.8,30.28,West,270,10.0,15.0,16,0.00,,---,0.00,VWS V14.01,2013-02-25 23:35:00,
2013-02-25 16:40:00,49.8,5.4,30.28,WSW,248,11.0,20.0,16,0.00,,---,0.00,VWS V14.01,2013-02-25 23:40:00,
2013-02-25 16:45:00,49.4,6.4,30.27,WSW,248,11.0,20.0,17,0.00,,---,0.00,VWS V14.01,2013-02-25 23:45:00,
2013-02-25 16:50:00,49.1,6.2,30.27,West,270,10.0,16.0,17,0.00,,---,0.00,VWS V14.01,2013-02-25 23:50:00,
2013-02-25 16:55:00,49.0,6.1,30.27,West,270,12.0,19.0,17,0.00,,---,0.00,VWS V14.01,2013-02-25 23:55:00,
2013-02-25 17:00:00,48.7,5.8,30.27,West,270,11.0,18.0,17,0.00,,---,0.00,VWS V14.01,2013-02-26 00:00:00,
2013-02-25 17:05:00,48.4,5.6,30.27,WSW,248,9.0,16.0,17,0.00,,---,0.00,VWS V14.01,2013-02-26 00:05:00,
2013-02-25 17:10:00,48.2,6.7,30.27,West,270,10.0,17.0,18,0.00,,---,0.00,VWS V14.01,2013-02-26 00:10:00,
2013-02-25 17:15:00,48.0,6.5,30.26,WSW,248,9.0,15.0,18,0.00,,---,0.00,VWS V14.01,2013-02-26 00:15:00,
2013-02-25 17:20:00,47.6,6.2,30.26,West,270,11.0,17.0,18,0.00,,---,0.00,VWS V14.01,2013-02-26 00:20:00,
2013-02-25 17:25:00,47.0,5.7,30.26,WSW,248,9.0,17.0,18,0.00,,---,0.00,VWS V14.01,2013-02-26 00:25:00,
2013-02-25 17:30:00,46.6,6.6,30.26,WSW,248,10.0,15.0,19,0.00,,---,0.00,VWS V14.01,2013-02-26 00:30:00,
2013-02-25 17:35:00,46.3,6.3,30.26,WSW,248,9.0,16.0,19,0.00,,---,0.00,VWS V14.01,2013-02-26 00:35:00,
2013-02-25 17:40:00,45.8,7.0,30.26,WSW,248,8.0,14.0,20,0.00,,---,0.00,VWS V14.01,2013-02-26 00:40:00,
2013-02-25 17:45:00,45.4,6.7,30.26,WSW,248,9.0,14.0,20,0.00,,---,0.00,VWS V14.01,2013-02-26 00:45:00,
2013-02-25 17:50:00,45.1,7.5,30.26,WSW,248,6.0,12.0,21,0.00,,---,0.00,VWS V14.01,2013-02-26 00:50:00,
2013-02-25 17:55:00,44.6,7.1,30.26,SW,225,7.0,12.0,21,0.00,,---,0.00,VWS V14.01,2013-02-26 00:55:00,
2013-02-25 18:00:00,44.3,6.8,30.26,WSW,248,8.0,15.0,21,0.00,,---,0.00,VWS V14.01,2013-02-26 01:00:00,
2013-02-25 18:05:00,44.1,6.7,30.26,WSW,248,7.0,14.0,21,0.00,,---,0.00,VWS V14.01,2013-02-26 01:05:00,
2013-02-25 18:10:00,43.7,7.4,30.26,WSW,248,8.0,12.0,22,0.00,,---,0.00,VWS V14.01,2013-02-26 01:10:00,
2013-02-25 18:15:00,43.2,6.9,30.25,WSW,248,7.0,12.0,22,0.00,,---,0.00,VWS V14.01,2013-02-26 01:15:00,
2013-02-25 18:20:00,42.7,7.5,30.25,WSW,248,9.0,15.0,23,0.00,,---,0.00,VWS V14.01,2013-02-26 01:20:00,
2013-02-25 18:25:00,42.1,7.0,30.25,WSW,248,8.0,14.0,23,0.00,,---,0.00,VWS V14.01,2013-02-26 01:25:00,
2013-02-25 18:30:00,41.6,7.5,30.25,WSW,248,10.0,18.0,24,0.00,,---,0.00,VWS V14.01,2013-02-26 01:30:00,
2013-02-25 18:35:00,41.2,8.1,30.25,WSW,248,8.0,14.0,25,0.00,,---,0.00,VWS V14.01,2013-02-26 01:35:00,
2013-02-25 18:40:00,40.8,8.6,30.25,WSW,248,9.0,14.0,26,0.00,,---,0.00,VWS V14.01,2013-02-26 01:40:00,
2013-02-25 18:45:00,40.4,8.2,30.25,SW,225,8.0,12.0,26,0.00,,---,0.00,VWS V14.01,2013-02-26 01:45:00,
2013-02-25 18:50:00,40.1,8.0,30.25,SW,225,8.0,14.0,26,0.00,,---,0.00,VWS V14.01,2013-02-26 01:50:00,
2013-02-25 18:55:00,39.8,8.6,30.25,SW,225,10.0,14.0,27,0.00,,---,0.00,VWS V14.01,2013-02-26 01:55:00,
2013-02-25 19:00:00,39.5,8.3,30.24,SW,225,9.0,13.0,27,0.00,,---,0.00,VWS V14.01,2013-02-26 02:00:00,
2013-02-25 19:05:00,39.2,8.0,30.24,SW,225,8.0,12.0,27,0.00,,---,0.00,VWS V14.01,2013-02-26 02:05:00,
2013-02-25 19:10:00,38.9,8.6,30.24,SW,225,7.0,11.0,28,0.00,,---,0.00,VWS V14.01,2013-02-26 02:10:00,
2013-02-25 19:15:00,38.6,8.3,30.24,SW,225,9.0,12.0,28,0.00,,---,0.00,VWS V14.01,2013-02-26 02:15:00,
2013-02-25 19:20:00,38.4,8.1,30.24,SW,225,9.0,13.0,28,0.00,,---,0.00,VWS V14.01,2013-02-26 02:20:00,
2013-02-25 19:25:00,38.2,8.0,30.24,SW,225,9.0,14.0,28,0.00,,---,0.00,VWS V14.01,2013-02-26 02:25:00,
2013-02-25 19:30:00,38.2,8.0,30.24,SW,225,8.0,12.0,28,0.00,,---,0.00,VWS V14.01,2013-02-26 02:30:00,
2013-02-25 19:35:00,38.2,8.0,30.24,SSW,202,7.0,12.0,28,0.00,,---,0.00,VWS V14.01,2013-02-26 02:35:00,
2013-02-25 19:40:00,38.0,7.8,30.24,SSW,202,7.0,11.0,28,0.00,,---,0.00,VWS V14.01,2013-02-26 02:40:00,
2013-02-25 19:45:00,37.9,7.7,30.25,SSW,202,7.0,12.0,28,0.00,,---,0.00,VWS V14.01,2013-02-26 02:45:00,
2013-02-25 19:50:00,37.8,7.6,30.25,SSW,202,8.0,13.0,28,0.00,,---,0.00,VWS V14.01,2013-02-26 02:50:00,
2013-02-25 19:55:00,37.7,7.6,30.25,SSW,202,8.0,13.0,28,0.00,,---,0.00,VWS V14.01,2013-02-26 02:55:00,
2013-02-25 20:00:00,37.6,7.5,30.24,SW,225,7.0,14.0,28,0.00,,---,0.00,VWS V14.01,2013-02-26 03:00:00,
2013-02-25 20:05:00,37.6,7.5,30.24,SSW,202,7.0,11.0,28,0.00,,---,0.00,VWS V14.01,2013-02-26 03:05:00,
2013-02-25 20:10:00,37.6,6.7,30.24,SW,225,9.0,13.0,27,0.00,,---,0.00,VWS V14.01,2013-02-26 03:10:00,
2013-02-25 20:15:00,37.5,6.6,30.25,WSW,248,8.0,12.0,27,0.00,,---,0.00,VWS V14.01,2013-02-26 03:15:00,
2013-02-25 20:20:00,37.4,6.5,30.25,WNW,292,5.0,9.0,27,0.00,,---,0.00,VWS V14.01,2013-02-26 03:20:00,
2013-02-25 20:25:00,37.2,6.3,30.25,WNW,292,4.0,5.0,27,0.00,,---,0.00,VWS V14.01,2013-02-26 03:25:00,
2013-02-25 20:30:00,37.0,6.9,30.26,WNW,292,3.0,4.0,28,0.00,,---,0.00,VWS V14.01,2013-02-26 03:30:00,
2013-02-25 20:35:00,36.8,6.8,30.26,WNW,292,2.0,5.0,28,0.00,,---,0.00,VWS V14.01,2013-02-26 03:35:00,
2013-02-25 20:40:00,36.6,6.6,30.26,WNW,292,1.0,3.0,28,0.00,,---,0.00,VWS V14.01,2013-02-26 03:40:00,
2013-02-25 20:45:00,36.5,6.5,30.25,WNW,292,0.0,2.0,28,0.00,,---,0.00,VWS V14.01,2013-02-26 03:45:00,
2013-02-25 20:50:00,36.5,6.5,30.25,WNW,292,1.0,4.0,28,0.00,,---,0.00,VWS V14.01,2013-02-26 03:50:00,
2013-02-25 20:55:00,36.4,6.4,30.25,WNW,292,4.0,5.0,28,0.00,,---,0.00,VWS V14.01,2013-02-26 03:55:00,
2013-02-25 21:00:00,36.3,6.3,30.24,SW,225,5.0,7.0,28,0.00,,---,0.00,VWS V14.01,2013-02-26 04:00:00,
2013-02-25 21:05:00,36.1,6.2,30.24,SW,225,4.0,6.0,28,0.00,,---,0.00,VWS V14.01,2013-02-26 04:05:00,
2013-02-25 21:10:00,35.8,6.7,30.24,SW,225,4.0,5.0,29,0.00,,---,0.00,VWS V14.01,2013-02-26 04:10:00,
2013-02-25 21:15:00,35.5,6.4,30.23,SSW,202,6.0,7.0,29,0.00,,---,0.00,VWS V14.01,2013-02-26 04:15:00,
2013-02-25 21:20:00,35.1,6.8,30.23,SSW,202,6.0,8.0,30,0.00,,---,0.00,VWS V14.01,2013-02-26 04:20:00,
2013-02-25 21:25:00,34.8,7.3,30.23,SSW,202,6.0,8.0,31,0.00,,---,0.00,VWS V14.01,2013-02-26 04:25:00,
2013-02-25 21:30:00,34.5,7.0,30.23,SSW,202,5.0,7.0,31,0.00,,---,0.00,VWS V14.01,2013-02-26 04:30:00,
2013-02-25 21:35:00,34.3,6.8,30.23,SSW,202,6.0,9.0,31,0.00,,---,0.00,VWS V14.01,2013-02-26 04:35:00,
2013-02-25 21:40:00,34.1,6.6,30.23,SSW,202,6.0,10.0,31,0.00,,---,0.00,VWS V14.01,2013-02-26 04:40:00,
2013-02-25 21:45:00,34.1,6.6,30.22,SSW,202,6.0,9.0,31,0.00,,---,0.00,VWS V14.01,2013-02-26 04:45:00,
2013-02-25 21:50:00,34.1,6.6,30.22,SSW,202,4.0,7.0,31,0.00,,---,0.00,VWS V14.01,2013-02-26 04:50:00,
2013-02-25 21:55:00,34.1,6.6,30.22,SSW,202,3.0,5.0,31,0.00,,---,0.00,VWS V14.01,2013-02-26 04:55:00,
2013-02-25 22:00:00,34.0,6.6,30.22,SSW,202,3.0,5.0,31,0.00,,---,0.00,VWS V14.01,2013-02-26 05:00:00,
2013-02-25 22:05:00,33.8,6.4,30.22,SSW,202,3.0,5.0,31,0.00,,---,0.00,VWS V14.01,2013-02-26 05:05:00,
2013-02-25 22:10:00,33.7,6.3,30.22,SSW,202,4.0,5.0,31,0.00,,---,0.00,VWS V14.01,2013-02-26 05:10:00,
2013-02-25 22:15:00,33.5,6.1,30.23,SSW,202,4.0,6.0,31,0.00,,---,0.00,VWS V14.01,2013-02-26 05:15:00,
2013-02-25 22:20:00,33.5,6.1,30.23,SSW,202,5.0,7.0,31,0.00,,---,0.00,VWS V14.01,2013-02-26 05:20:00,
2013-02-25 22:25:00,33.3,5.9,30.23,SSW,202,5.0,7.0,31,0.00,,---,0.00,VWS V14.01,2013-02-26 05:25:00,
2013-02-25 22:30:00,33.1,6.5,30.22,SSW,202,4.0,7.0,32,0.00,,---,0.00,VWS V14.01,2013-02-26 05:30:00,
2013-02-25 22:35:00,32.9,5.6,30.22,SSW,202,3.0,5.0,31,0.00,,---,0.00,VWS V14.01,2013-02-26 05:35:00,
2013-02-25 22:40:00,32.7,5.4,30.22,SSW,202,3.0,5.0,31,0.00,,---,0.00,VWS V14.01,2013-02-26 05:40:00,
2013-02-25 22:45:00,32.6,5.3,30.22,SSW,202,4.0,5.0,31,0.00,,---,0.00,VWS V14.01,2013-02-26 05:45:00,
2013-02-25 22:50:00,32.5,5.9,30.22,SSW,202,2.0,4.0,32,0.00,,---,0.00,VWS V14.01,2013-02-26 05:50:00,
2013-02-25 22:55:00,32.3,5.8,30.22,SSW,202,4.0,5.0,32,0.00,,---,0.00,VWS V14.01,2013-02-26 05:55:00,
2013-02-25 23:00:00,32.1,4.9,30.22,SSW,202,4.0,5.0,31,0.00,,---,0.00,VWS V14.01,2013-02-26 06:00:00,
2013-02-25 23:05:00,31.8,6.0,30.22,SSW,202,1.0,4.0,33,0.00,,---,0.00,VWS V14.01,2013-02-26 06:05:00,
2013-02-25 23:10:00,31.4,6.3,30.22,SSW,202,2.0,5.0,34,0.00,,---,0.00,VWS V14.01,2013-02-26 06:10:00,
2013-02-25 23:15:00,31.1,6.7,30.21,SSW,202,3.0,5.0,35,0.00,,---,0.00,VWS V14.01,2013-02-26 06:15:00,
2013-02-25 23:20:00,30.4,6.0,30.21,South,180,3.0,6.0,35,0.00,,---,0.00,VWS V14.01,2013-02-26 06:20:00,
2013-02-25 23:25:00,29.8,6.1,30.21,South,180,0.0,1.0,36,0.00,,---,0.00,VWS V14.01,2013-02-26 06:25:00,
2013-02-25 23:30:00,29.4,5.1,30.21,South,180,1.0,4.0,35,0.00,,---,0.00,VWS V14.01,2013-02-26 06:30:00,
2013-02-25 23:35:00,29.0,5.4,30.21,South,180,2.0,4.0,36,0.00,,---,0.00,VWS V14.01,2013-02-26 06:35:00,
2013-02-25 23:40:00,28.7,5.7,30.21,South,180,3.0,4.0,37,0.00,,---,0.00,VWS V14.01,2013-02-26 06:40:00,
2013-02-25 23:45:00,28.3,6.0,30.20,South,180,3.0,5.0,38,0.00,,---,0.00,VWS V14.01,2013-02-26 06:45:00,
2013-02-25 23:50:00,27.9,6.2,30.20,South,180,2.0,5.0,39,0.00,,---,0.00,VWS V14.01,2013-02-26 06:50:00,
2013-02-25 23:55:00,27.6,2.9,30.20,South,180,1.0,3.0,34,0.00,,---,0.00,VWS V14.01,2013-02-26 06:55:00,